Time;durP1;ratioP1;P1;durP2;ratioP2;P2;SDS_P1;SDS_P2;PMS_P1;PMS_P2;Temp;Humidity;BMP_temperature;BMP_pressure;BME280_temperature;BME280_humidity;BME280_pressure;Samples;Min_cycle;Max_cycle;Signal;HPM_P1;HPM_P2
2022/01/18 00:01:34;;;;;;;2.22;1.17;;;;;;;5.20;100.00;100928.16;4918677;29;20066;-71
2022/01/18 00:04:21;;;;;;;1.65;1.00;;;;;;;5.18;100.00;100942.88;4905288;29;20028;-72
2022/01/18 00:07:06;;;;;;;1.42;1.02;;;;;;;5.00;100.00;100968.72;4906142;29;20036;-71
2022/01/18 00:09:52;;;;;;;2.60;0.80;;;;;;;4.99;100.00;100982.53;4918281;29;20028;-71
2022/01/18 00:18:14;;;;;;;1.40;1.00;;;;;;;4.75;100.00;101022.97;4917599;29;20431;-71
2022/01/18 00:23:48;;;;;;;2.10;1.20;;;;;;;4.56;97.09;101049.53;4918516;29;20043;-70
2022/01/18 00:26:34;;;;;;;1.80;1.17;;;;;;;4.58;95.93;101051.28;4917936;29;20043;-71
2022/01/18 00:29:23;;;;;;;2.05;1.30;;;;;;;4.49;97.03;101073.66;4918412;29;20110;-70
2022/01/18 00:32:18;;;;;;;1.00;0.80;;;;;;;4.44;97.83;101091.78;4918842;29;20032;-72
2022/01/18 00:35:16;;;;;;;1.45;1.10;;;;;;;4.38;99.08;101119.38;4916631;29;20095;-70
2022/01/18 00:38:14;;;;;;;1.25;0.90;;;;;;;4.29;99.53;101135.66;4918171;29;20060;-72
2022/01/18 00:41:02;;;;;;;4.90;1.60;;;;;;;4.09;100.00;101139.69;4918585;29;20100;-71
2022/01/18 00:43:48;;;;;;;4.53;2.10;;;;;;;4.13;100.00;101156.13;4918452;29;20063;-71
2022/01/18 00:46:34;;;;;;;2.67;1.70;;;;;;;4.14;100.00;101174.31;4904392;29;20166;-70
2022/01/18 00:49:20;;;;;;;1.42;1.10;;;;;;;3.94;100.00;101193.00;4918191;29;20043;-71
2022/01/18 00:52:07;;;;;;;4.55;1.10;;;;;;;4.19;96.68;101210.69;4917777;29;20127;-71
2022/01/18 00:54:53;;;;;;;2.35;1.33;;;;;;;4.06;92.51;101209.63;4918424;29;20071;-71
2022/01/18 00:57:38;;;;;;;1.95;1.30;;;;;;;4.24;90.44;101209.94;4917719;29;20028;-71
2022/01/18 01:00:24;;;;;;;2.30;1.27;;;;;;;4.01;89.50;101212.97;4917854;29;20119;-72
2022/01/18 01:03:10;;;;;;;2.08;1.40;;;;;;;4.11;88.23;101218.34;4916383;29;20104;-72
2022/01/18 01:05:56;;;;;;;1.73;1.15;;;;;;;4.02;88.11;101222.53;4918633;29;20115;-71
2022/01/18 01:08:42;;;;;;;1.73;0.93;;;;;;;3.86;87.18;101234.31;4918473;29;20028;-71
2022/01/18 01:11:28;;;;;;;1.95;0.93;;;;;;;3.87;88.17;101238.66;4918010;29;20047;-71
2022/01/18 01:14:19;;;;;;;1.52;1.10;;;;;;;3.98;88.18;101236.28;4919024;29;20454;-72
2022/01/18 01:36:07;;;;;;;2.03;1.23;;;;;;;3.45;86.19;101263.78;4937122;29;20032;-71
2022/01/18 01:42:12;;;;;;;2.72;1.20;;;;;;;3.45;85.69;101284.50;4937256;29;20031;-71
2022/01/18 01:44:59;;;;;;;1.80;1.20;;;;;;;3.53;85.34;101295.88;4937486;29;20031;-71
2022/01/18 01:47:50;;;;;;;1.25;1.10;;;;;;;3.71;84.06;101297.97;4937121;29;20123;-70
2022/01/18 01:50:49;;;;;;;2.67;1.50;;;;;;;3.59;82.76;101296.03;4936404;29;20031;-71
2022/01/18 01:53:38;;;;;;;4.88;1.20;;;;;;;3.52;82.11;101308.81;4936626;29;20035;-71
2022/01/18 01:56:24;;;;;;;2.25;1.50;;;;;;;3.61;80.83;101303.81;4935945;29;20452;-71
2022/01/18 01:59:10;;;;;;;1.42;1.17;;;;;;;3.55;80.54;101309.75;4936668;29;20051;-71
2022/01/18 02:01:56;;;;;;;3.10;1.30;;;;;;;3.60;79.06;101317.59;4936993;29;20118;-71
2022/01/18 02:04:42;;;;;;;2.33;1.50;;;;;;;3.56;79.69;101329.63;4937540;28;20036;-71
2022/01/18 02:07:27;;;;;;;3.40;1.30;;;;;;;3.84;78.69;101326.75;4939044;28;20023;-71
2022/01/18 02:10:13;;;;;;;2.38;1.30;;;;;;;3.90;77.83;101338.94;4940777;29;20090;-71
2022/01/18 02:12:59;;;;;;;3.75;1.50;;;;;;;3.52;77.88;101353.72;4939976;29;20361;-72
2022/01/18 02:16:12;;;;;;;1.63;1.20;;;;;;;3.80;77.39;101360.34;4939217;29;20024;-72
2022/01/18 02:22:33;;;;;;;2.38;1.35;;;;;;;3.57;76.73;101378.00;4940002;29;20032;-70
2022/01/18 02:25:18;;;;;;;2.80;1.45;;;;;;;3.64;76.81;101371.22;4939435;29;19949;-71
2022/01/18 02:28:04;;;;;;;2.55;1.30;;;;;;;3.58;76.25;101386.66;4939744;29;20150;-71
2022/01/18 02:30:51;;;;;;;1.95;1.23;;;;;;;3.65;75.44;101383.34;4939382;29;20023;-70
2022/01/18 02:33:36;;;;;;;1.75;1.15;;;;;;;3.45;75.10;101397.56;4939878;29;20110;-71
2022/01/18 02:36:22;;;;;;;1.95;1.25;;;;;;;3.47;76.03;101404.56;4939647;29;20027;-72
2022/01/18 02:39:09;;;;;;;3.33;1.50;;;;;;;3.63;75.36;101408.34;4940180;29;20042;-71
2022/01/18 02:42:04;;;;;;;4.25;1.40;;;;;;;3.72;73.26;101403.34;4939414;29;20063;-71
2022/01/18 02:44:51;;;;;;;2.72;1.25;;;;;;;3.38;73.31;101414.69;4939696;29;20373;-71
2022/01/18 02:47:36;;;;;;;1.65;1.30;;;;;;;3.42;73.53;101429.47;4940281;28;20044;-72
2022/01/18 02:50:22;;;;;;;2.65;1.50;;;;;;;3.61;73.74;101443.69;4939746;29;20028;-71
2022/01/18 02:53:08;;;;;;;2.38;1.30;;;;;;;3.85;72.69;101464.97;4939280;29;20019;-71
2022/01/18 02:55:56;;;;;;;4.22;1.30;;;;;;;3.88;71.60;101458.16;4925452;29;20098;-71
2022/01/18 02:58:42;;;;;;;3.10;1.58;;;;;;;4.28;71.29;101455.53;4939384;29;20452;-71
2022/01/18 03:04:57;;;;;;;3.10;1.20;;;;;;;3.85;71.88;101468.44;4939194;29;20020;-71
2022/01/18 03:07:44;;;;;;;4.15;1.70;;;;;;;3.80;71.80;101485.63;4940425;28;20043;-71
2022/01/18 03:10:29;;;;;;;2.90;1.40;;;;;;;3.80;72.83;101488.22;4939345;29;20028;-71
2022/01/18 03:13:18;;;;;;;2.72;1.55;;;;;;;3.82;73.54;101481.31;4939364;29;20067;-71
2022/01/18 03:16:04;;;;;;;2.53;1.42;;;;;;;3.68;72.97;101487.94;4939017;29;20023;-72
2022/01/18 03:18:50;;;;;;;1.92;1.20;;;;;;;3.91;73.14;101488.44;4938440;29;20055;-72
2022/01/18 03:21:39;;;;;;;2.35;1.40;;;;;;;3.55;73.97;101488.50;4939091;29;20032;-71
2022/01/18 03:30:14;;;;;;;3.95;1.42;;;;;;;3.23;76.02;101509.28;4939271;29;20483;-71
2022/01/18 03:33:02;;;;;;;3.47;1.67;;;;;;;3.65;75.61;101511.19;4939634;29;20035;-71
2022/01/18 03:35:49;;;;;;;2.75;1.30;;;;;;;3.25;76.49;101507.59;4938519;29;20476;-71
2022/01/18 03:38:35;;;;;;;4.13;1.60;;;;;;;3.49;75.79;101518.53;4939345;29;20051;-70
2022/01/18 03:41:20;;;;;;;8.85;1.67;;;;;;;3.33;76.53;101530.25;4939618;28;20031;-71
2022/01/18 03:44:06;;;;;;;2.70;1.50;;;;;;;3.29;76.85;101528.44;4939942;28;20039;-71
2022/01/18 03:46:53;;;;;;;2.38;1.50;;;;;;;3.18;77.54;101529.88;4939051;29;20024;-71
2022/01/18 03:49:39;;;;;;;1.70;1.20;;;;;;;3.00;77.76;101537.19;4938030;29;20035;-71
2022/01/18 03:52:28;;;;;;;2.55;1.40;;;;;;;3.39;76.51;101547.66;4939699;28;20356;-70
2022/01/18 03:55:17;;;;;;;2.55;1.40;;;;;;;3.22;75.18;101557.59;4938827;29;20055;-71
2022/01/18 03:58:03;;;;;;;2.55;1.67;;;;;;;3.23;75.22;101568.84;4938431;29;20257;-71
2022/01/18 04:00:50;;;;;;;2.40;1.30;;;;;;;3.22;75.25;101580.91;4939090;28;20028;-71
2022/01/18 04:03:57;;;;;;;2.20;1.20;;;;;;;3.29;73.08;101598.34;4937407;29;20071;-70
2022/01/18 04:06:43;;;;;;;3.95;1.38;;;;;;;2.81;73.37;101611.72;4938227;29;20045;-71
2022/01/18 04:09:29;;;;;;;2.35;1.50;;;;;;;2.86;74.76;101608.41;4937277;29;20032;-70
2022/01/18 04:12:14;;;;;;;2.13;1.17;;;;;;;3.01;72.94;101624.34;4937388;29;20110;-71
2022/01/18 04:29:20;;;;;;;2.20;1.40;;;;;;;2.85;73.56;101679.09;4956913;28;20027;-69
2022/01/18 04:32:06;;;;;;;2.55;1.40;;;;;;;2.76;73.92;101684.03;4943880;29;20039;-71
2022/01/18 04:34:51;;;;;;;3.40;1.35;;;;;;;2.56;75.75;101690.31;4955551;29;20041;-72
2022/01/18 04:37:37;;;;;;;2.30;1.75;;;;;;;2.76;75.45;101685.72;4956885;28;20031;-71
2022/01/18 04:40:28;;;;;;;2.35;1.50;;;;;;;2.60;76.76;101688.69;4942096;29;20031;-70
2022/01/18 04:43:24;;;;;;;3.28;1.33;;;;;;;2.53;79.57;101684.19;4943196;29;20035;-70
2022/01/18 04:49:15;;;;;;;1.95;1.40;;;;;;;2.47;85.13;101695.22;4957437;28;20121;-71
2022/01/18 04:52:01;;;;;;;4.20;1.50;;;;;;;2.17;88.65;101706.31;4955889;29;20235;-72
2022/01/18 04:54:57;;;;;;;3.40;1.67;;;;;;;2.20;90.61;101711.56;4955401;29;20015;-71
2022/01/18 04:57:52;;;;;;;3.88;1.55;;;;;;;2.11;93.14;101699.25;4955944;29;20023;-72
2022/01/18 05:00:38;;;;;;;2.30;1.48;;;;;;;2.11;96.12;101701.81;4956507;29;20093;-70
2022/01/18 05:03:24;;;;;;;2.55;1.70;;;;;;;1.95;99.38;101709.91;4955715;29;20126;-70
2022/01/18 05:06:13;;;;;;;3.38;1.83;;;;;;;1.93;100.00;101713.28;4941817;29;20460;-71
2022/01/18 05:09:05;;;;;;;5.93;1.98;;;;;;;1.93;100.00;101729.63;4955661;29;20145;-71
2022/01/18 05:12:05;;;;;;;5.15;2.00;;;;;;;1.69;100.00;101744.31;4942837;29;20464;-70
2022/01/18 05:14:50;;;;;;;3.83;2.08;;;;;;;1.83;100.00;101748.25;4942854;29;20050;-71
2022/01/18 05:17:59;;;;;;;5.03;2.20;;;;;;;1.65;100.00;101746.75;4955348;29;20039;-71
2022/01/18 05:24:29;;;;;;;6.20;2.53;;;;;;;1.76;100.00;101761.78;4956412;28;20047;-70
2022/01/18 05:27:15;;;;;;;8.50;5.22;;;;;;;1.65;100.00;101772.59;4954871;28;20432;-71
2022/01/18 05:30:01;;;;;;;14.60;7.38;;;;;;;1.81;100.00;101782.63;4955009;29;20082;-71
2022/01/18 05:41:43;;;;;;;4.32;2.58;;;;;;;1.72;100.00;101837.41;5343563;23;19922;-71
2022/01/18 05:44:29;;;;;;;5.18;2.88;;;;;;;1.81;100.00;101850.66;4960034;29;20126;-71
2022/01/18 05:47:15;;;;;;;4.53;2.70;;;;;;;1.74;100.00;101856.44;4958923;28;20023;-71
2022/01/18 05:50:01;;;;;;;8.52;3.10;;;;;;;1.87;100.00;101865.50;4958438;29;20122;-71
2022/01/18 05:52:47;;;;;;;5.18;3.20;;;;;;;1.70;100.00;101870.06;4959476;29;20090;-72
2022/01/18 06:03:35;;;;;;;5.35;2.67;;;;;;;1.74;100.00;101871.94;5733232;23;20001;-72
2022/01/18 06:09:25;;;;;;;6.00;2.90;;;;;;;1.43;100.00;101871.63;4959086;29;20027;-73
2022/01/18 06:12:11;;;;;;;5.43;2.72;;;;;;;1.61;100.00;101877.47;4959686;28;20027;-73
2022/01/18 06:14:57;;;;;;;4.35;2.50;;;;;;;1.58;100.00;101882.53;4958861;29;20344;-71
2022/01/18 06:17:43;;;;;;;5.15;3.00;;;;;;;1.70;100.00;101874.34;4958939;29;20035;-72
2022/01/18 06:20:29;;;;;;;9.05;3.22;;;;;;;1.77;100.00;101884.94;4945732;29;20094;-72
2022/01/18 06:23:26;;;;;;;4.82;2.92;;;;;;;1.63;100.00;101878.41;4957904;29;20114;-73
2022/01/18 06:26:16;;;;;;;5.13;3.00;;;;;;;1.72;100.00;101870.13;4945259;29;20027;-73
2022/01/18 06:29:02;;;;;;;8.55;3.53;;;;;;;1.77;100.00;101866.88;4957727;29;20042;-72
2022/01/18 06:31:48;;;;;;;7.28;2.80;;;;;;;1.71;100.00;101866.66;4958192;29;20420;-71
2022/01/18 06:34:34;;;;;;;3.53;2.35;;;;;;;1.64;100.00;101869.84;4957767;29;20408;-72
2022/01/18 06:37:20;;;;;;;4.78;2.70;;;;;;;1.80;100.00;101871.28;4957442;28;20067;-72
2022/01/18 06:40:11;;;;;;;4.07;2.50;;;;;;;1.74;100.00;101883.97;4959208;28;20484;-72
2022/01/18 06:42:56;;;;;;;4.43;2.70;;;;;;;1.57;100.00;101887.66;4958947;29;20129;-73
2022/01/18 06:45:42;;;;;;;6.32;3.00;;;;;;;1.62;100.00;101888.69;4959463;28;20027;-72
2022/01/18 06:48:28;;;;;;;5.53;2.70;;;;;;;1.63;100.00;101883.59;4957658;29;20019;-72
2022/01/18 06:51:14;;;;;;;5.55;3.42;;;;;;;1.84;100.00;101886.09;4957794;29;20035;-72
2022/01/18 06:54:00;;;;;;;9.07;4.07;;;;;;;1.99;100.00;101874.56;4957869;28;20031;-71
2022/01/18 06:56:49;;;;;;;8.93;4.78;;;;;;;2.03;100.00;101876.44;4943796;29;20078;-71
2022/01/18 06:59:35;;;;;;;13.02;4.20;;;;;;;2.16;100.00;101875.16;4957126;29;20035;-73
2022/01/18 07:02:21;;;;;;;8.32;4.07;;;;;;;2.35;100.00;101874.94;4957460;29;20524;-72
2022/01/18 07:05:07;;;;;;;8.55;3.63;;;;;;;2.51;100.00;101887.56;4956925;29;20082;-71
2022/01/18 07:07:52;;;;;;;6.68;3.50;;;;;;;2.53;100.00;101883.34;4957574;29;20053;-71
2022/01/18 07:10:38;;;;;;;8.40;3.80;;;;;;;2.53;100.00;101883.34;4956985;29;20027;-71
2022/01/18 07:13:24;;;;;;;8.05;3.38;;;;;;;2.58;100.00;101882.63;4957236;29;20095;-73
2022/01/18 07:16:10;;;;;;;5.07;2.90;;;;;;;2.74;100.00;101873.69;4943592;29;20035;-72
2022/01/18 07:22:42;;;;;;;5.90;2.90;;;;;;;2.97;98.17;101891.69;4958436;28;20035;-72
2022/01/18 07:25:28;;;;;;;6.28;3.58;;;;;;;3.28;96.60;101885.75;4957102;28;20023;-73
2022/01/18 07:28:17;;;;;;;6.57;2.83;;;;;;;3.19;95.26;101891.56;4958076;29;20038;-72
2022/01/18 07:31:03;;;;;;;4.82;2.83;;;;;;;3.49;93.55;101899.34;4950321;29;20035;-73
2022/01/18 07:33:49;;;;;;;5.75;2.78;;;;;;;3.72;92.46;101901.78;4957191;29;20027;-72
2022/01/18 07:36:35;;;;;;;5.40;2.40;;;;;;;3.64;91.34;101912.75;4956670;28;20027;-73
2022/01/18 07:39:20;;;;;;;4.68;2.60;;;;;;;3.77;89.87;101920.94;4956796;29;20043;-72
2022/01/18 07:42:06;;;;;;;8.95;3.20;;;;;;;3.96;88.23;101923.22;4958206;28;20081;-73
2022/01/18 07:44:52;;;;;;;6.07;2.88;;;;;;;4.24;87.17;101917.06;4956453;29;20294;-72
2022/01/18 07:47:38;;;;;;;6.15;3.38;;;;;;;4.41;83.08;101919.28;4956161;29;20031;-72
2022/01/18 07:50:25;;;;;;;7.22;2.90;;;;;;;4.67;82.00;101923.41;4957143;29;20436;-71
2022/01/18 07:53:11;;;;;;;6.95;2.90;;;;;;;4.70;80.04;101917.41;4956144;29;20031;-71
2022/01/18 07:55:57;;;;;;;8.07;3.05;;;;;;;4.90;79.43;101918.78;4956477;28;20063;-73
2022/01/18 07:58:43;;;;;;;10.07;3.28;;;;;;;5.03;77.76;101919.13;4957124;29;20109;-72
2022/01/18 08:01:29;;;;;;;6.45;2.80;;;;;;;5.15;75.80;101927.22;4956239;29;20027;-72
2022/01/18 08:04:15;;;;;;;8.05;4.18;;;;;;;5.47;74.52;101939.22;4956129;28;20047;-72
2022/01/18 08:07:01;;;;;;;9.48;5.22;;;;;;;5.92;73.34;101941.09;4956814;28;20436;-73
2022/01/18 08:09:46;;;;;;;6.25;3.10;;;;;;;6.04;71.58;101943.94;4956103;29;20043;-72
2022/01/18 08:12:32;;;;;;;7.07;3.05;;;;;;;6.23;69.54;101952.13;4942960;29;20031;-73
2022/01/18 08:15:21;;;;;;;6.97;3.42;;;;;;;6.42;67.56;101956.84;4955793;28;20441;-72
2022/01/18 08:18:12;;;;;;;7.32;3.20;;;;;;;6.52;65.65;101960.53;4943333;29;20478;-74
2022/01/18 08:20:58;;;;;;;7.05;3.70;;;;;;;6.73;64.66;101961.78;4956091;29;20091;-73
2022/01/18 08:23:44;;;;;;;12.68;3.33;;;;;;;6.55;62.96;101964.03;4957325;28;20041;-75
2022/01/18 08:26:30;;;;;;;7.90;3.47;;;;;;;6.85;61.65;101959.41;4956971;28;20154;-72
2022/01/18 08:29:15;;;;;;;8.15;3.25;;;;;;;7.13;60.43;101969.44;4955662;29;20031;-73
2022/01/18 08:32:02;;;;;;;10.10;3.25;;;;;;;7.09;60.68;101965.03;4948473;29;20035;-74
2022/01/18 08:34:48;;;;;;;6.65;2.88;;;;;;;7.00;58.55;101975.31;4943309;29;20065;-73
2022/01/18 08:37:34;;;;;;;6.95;2.88;;;;;;;6.80;58.60;101981.91;4955968;28;20409;-73
2022/01/18 08:40:20;;;;;;;6.45;2.80;;;;;;;6.99;58.62;101976.13;4955660;29;20035;-73
2022/01/18 08:43:06;;;;;;;4.57;2.90;;;;;;;7.13;56.25;101982.47;4955785;29;20100;-73
2022/01/18 08:45:52;;;;;;;5.53;2.78;;;;;;;6.84;56.43;101982.81;4942699;28;20075;-73
2022/01/18 08:48:38;;;;;;;6.45;3.42;;;;;;;6.97;55.98;101988.28;4941848;29;20466;-72
2022/01/18 08:51:24;;;;;;;5.55;2.72;;;;;;;7.61;55.02;101982.34;4955992;29;20042;-74
2022/01/18 08:54:09;;;;;;;5.38;2.90;;;;;;;7.47;53.82;101979.53;4955795;29;20232;-72
2022/01/18 08:56:55;;;;;;;5.82;3.08;;;;;;;7.53;53.51;101977.03;4956880;28;20527;-72
2022/01/18 08:59:42;;;;;;;6.35;2.58;;;;;;;6.91;53.79;101972.50;4941621;29;20027;-72
2022/01/18 09:02:28;;;;;;;10.20;3.45;;;;;;;7.19;52.97;101968.66;4942306;29;20457;-72
2022/01/18 09:05:14;;;;;;;4.43;2.60;;;;;;;6.87;53.78;101969.84;4956038;29;20040;-72
2022/01/18 09:08:05;;;;;;;5.97;3.15;;;;;;;6.96;54.11;101972.59;4948873;29;20027;-73
2022/01/18 09:10:52;;;;;;;6.75;3.30;;;;;;;6.80;54.65;101973.19;4941581;29;20102;-74
2022/01/18 09:13:41;;;;;;;3.30;2.28;;;;;;;6.22;55.66;101965.16;4955610;29;20099;-73
2022/01/18 09:16:27;;;;;;;6.20;2.38;;;;;;;6.20;56.46;101967.72;4955720;28;20033;-73
2022/01/18 09:19:13;;;;;;;6.07;2.53;;;;;;;6.69;56.01;101973.00;4955194;29;20034;-73
2022/01/18 09:22:00;;;;;;;5.63;2.67;;;;;;;6.63;55.29;101979.81;4955501;29;20043;-73
2022/01/18 09:24:46;;;;;;;7.60;3.40;;;;;;;6.97;55.15;101969.16;4941480;29;20411;-73
2022/01/18 09:27:32;;;;;;;7.70;3.00;;;;;;;6.92;55.28;101960.38;4955754;28;20035;-73
2022/01/18 09:30:22;;;;;;;8.15;3.50;;;;;;;7.04;54.68;101951.06;4956084;29;20067;-72
2022/01/18 09:33:08;;;;;;;5.25;2.97;;;;;;;6.67;53.53;101955.59;4956602;29;20058;-71
2022/01/18 09:35:54;;;;;;;6.65;2.67;;;;;;;6.97;52.57;101943.97;4955370;28;20471;-71
2022/01/18 09:38:39;;;;;;;4.97;2.50;;;;;;;7.29;51.52;101953.19;4955715;29;20041;-71
2022/01/18 09:41:29;;;;;;;5.65;2.65;;;;;;;6.95;50.39;101947.41;4954963;29;20115;-72
2022/01/18 09:44:16;;;;;;;5.28;2.42;;;;;;;7.06;49.31;101941.50;4955182;29;20140;-71
2022/01/18 09:47:02;;;;;;;5.38;2.22;;;;;;;7.14;49.23;101944.22;4954668;28;20031;-72
2022/01/18 09:49:48;;;;;;;5.18;2.40;;;;;;;6.67;48.18;101942.56;4955958;29;20031;-71
2022/01/18 09:52:34;;;;;;;4.65;1.98;;;;;;;6.66;49.55;101948.59;4942366;29;20027;-72
2022/01/18 09:55:27;;;;;;;5.95;2.58;;;;;;;7.07;49.05;101945.00;4954734;28;20039;-73
2022/01/18 09:58:13;;;;;;;11.30;2.90;;;;;;;7.10;50.14;101948.53;4955192;29;20042;-72
2022/01/18 10:00:59;;;;;;;4.00;2.25;;;;;;;7.01;50.59;101942.28;4941957;29;20511;-71
2022/01/18 10:03:45;;;;;;;4.28;2.28;;;;;;;6.57;50.80;101961.47;4954260;29;20047;-73
2022/01/18 10:06:30;;;;;;;4.10;2.45;;;;;;;6.72;50.15;101969.56;4954926;28;20027;-73
2022/01/18 10:09:18;;;;;;;5.70;2.17;;;;;;;6.71;50.82;101975.63;4955802;29;20125;-70
2022/01/18 10:12:06;;;;;;;5.97;2.47;;;;;;;6.49;50.75;101982.16;4954382;29;20055;-73
2022/01/18 10:14:58;;;;;;;5.18;2.58;;;;;;;6.51;51.71;101979.59;4941544;29;20468;-73
2022/01/18 10:17:43;;;;;;;6.00;2.45;;;;;;;6.83;51.59;101984.53;4954515;29;20448;-72
2022/01/18 10:20:29;;;;;;;4.63;2.38;;;;;;;6.88;50.76;101992.44;4954916;29;20035;-72
2022/01/18 10:23:23;;;;;;;7.45;2.67;;;;;;;6.76;51.33;101981.81;4954528;29;20023;-73
2022/01/18 10:26:25;;;;;;;4.82;2.70;;;;;;;6.85;53.22;101992.38;4956122;28;20373;-72
2022/01/18 10:29:12;;;;;;;5.55;2.90;;;;;;;6.72;52.32;101990.41;4942873;29;20031;-72
2022/01/18 10:32:08;;;;;;;5.40;2.90;;;;;;;6.73;53.15;101982.63;4958415;29;20035;-72
2022/01/18 10:37:41;;;;;;;8.18;3.38;;;;;;;6.81;54.56;101996.66;4959539;28;20420;-72
2022/01/18 10:40:27;;;;;;;7.50;2.95;;;;;;;6.69;54.03;101986.03;4957671;29;20030;-72
2022/01/18 10:43:29;;;;;;;6.38;2.92;;;;;;;6.66;54.54;101995.47;4957963;29;20115;-72
2022/01/18 10:46:16;;;;;;;9.07;3.47;;;;;;;7.12;53.46;101990.25;4957359;28;20058;-71
2022/01/18 10:49:03;;;;;;;8.82;4.88;;;;;;;7.45;53.41;101981.25;4958268;29;20045;-71
2022/01/18 10:51:56;;;;;;;4.90;2.97;;;;;;;7.12;52.01;101988.50;4958031;29;20042;-71
2022/01/18 10:54:55;;;;;;;10.30;3.15;;;;;;;6.96;53.13;101996.06;4957664;29;20031;-72
2022/01/18 10:57:41;;;;;;;4.63;2.60;;;;;;;7.08;52.40;101986.69;4945453;29;20464;-71
2022/01/18 11:00:29;;;;;;;5.43;2.70;;;;;;;6.69;53.92;101995.53;4943776;29;20038;-72
2022/01/18 11:03:15;;;;;;;9.80;3.25;;;;;;;6.98;54.67;102000.44;4943527;29;20040;-72
2022/01/18 11:06:15;;;;;;;6.63;3.00;;;;;;;7.06;55.38;102004.06;4944001;29;20063;-72
2022/01/18 11:09:13;;;;;;;5.75;2.88;;;;;;;6.98;54.78;102004.75;4957434;29;20379;-71
2022/01/18 11:12:00;;;;;;;9.35;3.20;;;;;;;7.00;54.67;102013.50;4958119;29;20031;-72
2022/01/18 11:14:51;;;;;;;4.78;2.65;;;;;;;7.16;53.73;101994.66;4957319;29;20420;-74
2022/01/18 11:17:40;;;;;;;6.07;3.13;;;;;;;7.42;54.31;101986.41;4957901;28;20042;-72
2022/01/18 11:20:29;;;;;;;9.15;3.05;;;;;;;7.21;53.19;101991.28;4958570;29;20031;-72
2022/01/18 11:23:15;;;;;;;6.72;2.90;;;;;;;7.15;51.64;101992.91;4957912;29;20046;-71
2022/01/18 11:26:01;;;;;;;8.18;2.95;;;;;;;7.20;52.23;101986.03;4957231;28;20475;-71
2022/01/18 11:28:55;;;;;;;6.95;3.35;;;;;;;7.09;52.78;101990.19;4958245;28;20053;-71
2022/01/18 11:31:44;;;;;;;5.38;3.55;;;;;;;7.24;52.21;101991.31;4944236;29;20460;-72
2022/01/18 11:34:49;;;;;;;6.63;3.25;;;;;;;7.10;51.92;101999.75;4957036;29;20435;-71
2022/01/18 11:38:16;;;;;;;6.18;3.10;;;;;;;6.94;52.05;101988.22;4943872;29;20035;-72
2022/01/18 11:41:04;;;;;;;5.47;3.10;;;;;;;6.86;51.93;101991.50;4949396;29;20031;-73
2022/01/18 11:43:51;;;;;;;7.03;3.10;;;;;;;6.93;52.59;101989.06;4957579;29;20039;-71
2022/01/18 12:01:50;;;;;;;6.82;3.83;;;;;;;6.99;53.86;101990.91;4867494;29;20068;-72
2022/01/18 12:05:25;;;;;;;7.63;3.47;;;;;;;7.21;54.12;101983.47;4804589;29;20058;-72
2022/01/18 12:13:01;;;;;;;;;;;;;;;;;;;;;
2022/01/18 12:23:43;;;;;;;;;;;;;;;;;;;;;
2022/01/18 12:27:10;;;;;;;7.05;2.95;;;;;;;7.20;54.23;101986.03;4788903;29;20045;-75
2022/01/18 12:30:54;;;;;;;6.40;3.30;;;;;;;7.40;52.63;101974.19;4788399;29;20069;-74
2022/01/18 12:49:20;;;;;;;5.63;2.90;;;;;;;7.04;50.54;101965.78;4684594;30;20037;-74
2022/01/18 12:58:23;;;;;;;6.32;2.88;;;;;;;7.15;49.80;101962.50;5632161;23;20058;-74
2022/01/18 13:01:33;;;;;;;4.63;2.60;;;;;;;7.54;49.53;101962.22;4943796;29;20356;-75
2022/01/18 13:08:47;;;;;;;6.55;2.70;;;;;;;7.34;49.00;101971.47;4862104;29;20048;-73
2022/01/18 13:11:43;;;;;;;5.65;3.20;;;;;;;7.31;49.32;101976.69;4861295;29;20038;-72
2022/01/18 13:15:07;;;;;;;4.97;2.78;;;;;;;7.60;49.56;101980.59;4861782;29;20034;-73
2022/01/18 13:26:08;;;;;;;;;;;;;;;;;;;;;
2022/01/18 13:30:01;;;;;;;;;;;;;;;;;;;;;
2022/01/18 13:34:14;;;;;;;;;;;;;;;;;;;;;
2022/01/18 13:42:34;;;;;;;6.90;3.10;;;;;;;7.31;47.78;101981.88;5128833;23;20060;-72
2022/01/18 13:46:04;;;;;;;5.10;2.42;;;;;;;7.58;47.50;101982.28;4936864;29;20438;-72
2022/01/18 13:53:20;;;;;;;6.38;2.88;;;;;;;7.52;47.44;101982.22;4879722;29;20343;-72
2022/01/18 13:56:30;;;;;;;4.75;2.20;;;;;;;7.32;47.28;101991.47;4928051;23;20483;-71
2022/01/18 13:59:35;;;;;;;6.38;3.05;;;;;;;7.33;47.68;101986.28;4942013;29;20035;-72
2022/01/18 14:06:39;;;;;;;6.97;4.18;;;;;;;7.26;47.16;101996.56;4930466;28;20045;-71
2022/01/18 14:09:31;;;;;;;7.30;2.97;;;;;;;7.37;47.48;102001.09;4870904;29;20044;-72
2022/01/18 14:12:17;;;;;;;5.45;2.70;;;;;;;7.21;47.86;101998.22;4882734;29;20077;-71
2022/01/18 14:15:07;;;;;;;6.07;3.30;;;;;;;7.17;49.06;102007.72;4882957;29;20029;-71
2022/01/18 14:18:05;;;;;;;8.25;3.38;;;;;;;7.12;49.38;102005.88;4926260;29;20465;-71
2022/01/18 14:20:51;;;;;;;6.68;3.03;;;;;;;6.92;49.69;102013.38;4958016;29;20344;-70
2022/01/18 14:23:37;;;;;;;8.02;3.10;;;;;;;6.95;49.92;102009.94;4957922;29;20027;-70
2022/01/18 14:26:23;;;;;;;8.82;3.50;;;;;;;7.35;49.18;102005.41;4957882;28;20066;-70
2022/01/18 14:29:09;;;;;;;7.78;3.83;;;;;;;7.21;49.29;102013.84;4944602;29;20102;-71
2022/01/18 14:32:06;;;;;;;9.25;4.15;;;;;;;6.82;50.13;102023.56;4958607;29;20038;-70
2022/01/18 14:35:18;;;;;;;8.25;4.10;;;;;;;6.94;50.21;102036.81;4957992;29;20034;-71
2022/01/18 14:38:11;;;;;;;8.52;4.00;;;;;;;6.87;50.12;102037.56;4958421;29;20034;-70
2022/01/18 14:40:57;;;;;;;8.55;4.60;;;;;;;6.63;50.34;102037.13;4957606;29;20093;-72
2022/01/18 14:43:43;;;;;;;8.82;4.45;;;;;;;6.99;49.90;102048.22;4945526;29;20031;-71
2022/01/18 14:46:55;;;;;;;7.50;3.75;;;;;;;6.76;49.33;102054.72;4944986;29;20027;-71
2022/01/18 14:49:35;;;;;;;8.75;4.10;;;;;;;6.48;48.04;102055.03;4959658;28;20034;-71
2022/01/18 14:52:22;;;;;;;8.82;4.15;;;;;;;6.46;47.56;102054.09;4958935;28;20069;-70
2022/01/18 14:55:08;;;;;;;9.77;4.40;;;;;;;6.51;47.33;102065.50;4944111;29;20452;-70
2022/01/18 14:57:56;;;;;;;9.70;4.10;;;;;;;6.36;46.82;102060.88;4957014;29;20051;-70
2022/01/18 15:00:42;;;;;;;5.43;3.17;;;;;;;6.19;46.42;102059.59;4957555;29;20402;-70
2022/01/18 15:03:28;;;;;;;5.40;3.13;;;;;;;5.98;45.94;102061.75;4959516;28;20042;-71
2022/01/18 15:06:14;;;;;;;6.40;3.20;;;;;;;6.04;46.23;102061.91;4957710;28;20337;-70
2022/01/18 15:09:00;;;;;;;5.85;3.15;;;;;;;5.78;46.56;102065.59;4958409;29;20110;-70
2022/01/18 15:11:49;;;;;;;6.22;3.17;;;;;;;5.77;47.06;102062.94;4958132;29;20027;-72
2022/01/18 15:15:03;;;;;;;6.03;3.55;;;;;;;5.95;46.83;102071.22;4943125;29;20359;-71
2022/01/18 15:17:50;;;;;;;11.63;3.67;;;;;;;6.10;47.32;102072.44;4956782;29;20028;-70
2022/01/18 15:20:37;;;;;;;9.10;5.20;;;;;;;6.03;47.11;102083.53;4957297;29;20130;-72
2022/01/18 15:23:23;;;;;;;9.23;4.13;;;;;;;5.89;47.80;102087.56;4956649;29;20105;-71
2022/01/18 15:26:09;;;;;;;6.93;3.05;;;;;;;5.47;48.71;102097.78;4958136;28;20019;-71
2022/01/18 15:28:54;;;;;;;10.30;3.42;;;;;;;5.31;49.54;102094.75;4958181;29;20074;-70
2022/01/18 15:31:40;;;;;;;7.20;3.22;;;;;;;5.05;50.16;102099.28;4958185;29;20051;-71
2022/01/18 15:34:27;;;;;;;6.55;3.45;;;;;;;5.03;50.76;102110.47;4957680;29;20044;-70
2022/01/18 15:37:17;;;;;;;7.78;4.07;;;;;;;5.00;51.63;102108.66;4956593;28;20031;-70
2022/01/18 15:40:06;;;;;;;7.93;3.97;;;;;;;4.90;51.77;102116.13;4956675;29;20097;-71
2022/01/18 15:42:52;;;;;;;7.57;3.50;;;;;;;4.73;52.82;102122.59;4957091;29;20338;-71
2022/01/18 15:45:37;;;;;;;7.57;3.45;;;;;;;4.85;53.12;102130.72;4957280;28;20106;-70
2022/01/18 15:48:23;;;;;;;10.75;3.67;;;;;;;4.86;53.29;102137.66;4956333;29;20046;-70
2022/01/18 15:51:10;;;;;;;7.07;3.88;;;;;;;4.75;53.59;102132.16;4956462;29;20118;-71
2022/01/18 15:53:55;;;;;;;7.97;4.60;;;;;;;4.64;54.10;102141.38;4956238;29;20032;-72
2022/01/18 15:56:41;;;;;;;9.35;3.42;;;;;;;4.61;53.74;102143.00;4956097;28;20051;-72
2022/01/18 15:59:27;;;;;;;8.65;4.18;;;;;;;4.58;54.38;102148.97;4957849;28;20051;-70
2022/01/18 16:02:12;;;;;;;9.27;3.58;;;;;;;4.50;54.93;102160.84;4944337;29;20093;-71
2022/01/18 16:04:58;;;;;;;6.15;3.40;;;;;;;4.58;55.16;102174.94;4956379;29;20467;-70
2022/01/18 16:07:44;;;;;;;6.20;3.80;;;;;;;4.48;55.17;102183.28;4943303;29;20456;-70
2022/01/18 16:10:30;;;;;;;10.00;4.80;;;;;;;4.76;55.76;102182.38;4956466;29;20353;-70
2022/01/18 16:13:15;;;;;;;7.95;3.90;;;;;;;4.54;56.51;102182.56;4956494;29;20019;-70